Supply, North Carolina
Current Conditions -  °F | °C
As of 5:35 AM on Wednesday 22 Oct 2014 (Local Time) from KSUT Reporting Station
Scattered Clouds Scattered Clouds  
Wind Chill: 53°   Ceiling: Unl
Heat Index: 53°   Visibility: 10mi
Dew Point: 42°   Wind: 9mph
Humidity: 67%   Direction: 340°NNW
Pressure: 29.91"   Gusts: NA
Location:  34.02°N, 78.27°W
Report Text: KSUT 220935Z AUTO 34008KT 10SM SCT075 12/06 A2991 RMK AO2 T01170057
Loading
Personal Weather Stations






























Interactive Weather Map
Tropical Storm Tracking
New forecast layout! Learn more

10-Day Weather Forecast

Advertisements
Track Severe Weather on mobile